Stanford, Illinois
Current Conditions -  °F | °C
As of 11:56 PM on Tuesday 27 Jan 2015 (Local Time) from KBMI Reporting Station
Overcast Overcast  
Wind Chill: 23°   Ceiling: 1100
Heat Index: 29°   Visibility: 8mi
Dew Point: 26°   Wind: 6mph
Humidity: 88%   Direction: 150°SSE
Pressure: 30.26"   Gusts: NA
Location:  40.43°N, 89.22°W
Report Text: KBMI 280556Z AUTO 15005KT 8SM OVC011 M02/M03 A3026 RMK AO2 53009 T10161033 11005 21016 400111016 SLP266
Loading
Personal Weather Stations






























Interactive Weather Map New forecast layout! Learn more

10-Day Weather Forecast

Advertisements
Track Severe Weather on mobile